Weather at Medovnitsa Airstrip

Public forecast

Using degrees Celsius for public forecast. Weather courtesy of forecast.io.

Closest aviation weather report (METAR) to Medovnitsa Airstrip

Closest report is Nis Airport, 45.1 nm (83.6 km) WSW.

2023/10/01 05:30 (retrieved 23 minutes ago)

LYNI 010530Z 20003KT 150V230 9999 BKN027 13/12 Q1022 NOSIG

Closest aviation forecast (TAF) to Medovnitsa Airstrip

Forecast is more than 12 hours old.

Closest forecast is Kuk√ęs International Airport, 142.7 nm (264.2 km) SW.

2023/09/30 12:00 Ammendment (retrieved 18 hours ago)

TAF AMD LAKU 301630Z 3012/0112 CNL